Time;durP1;ratioP1;P1;durP2;ratioP2;P2;SDS_P1;SDS_P2;PMS_P1;PMS_P2;Temp;Humidity;BMP_temperature;BMP_pressure;BME280_temperature;BME280_humidity;BME280_pressure;Samples;Min_cycle;Max_cycle;Signal;HPM_P1;HPM_P2
2020/10/13 00:00:27;;;;;;;14.45;9.649999;;;;;;;6.18;90.9541;95122.13;;;;
2020/10/13 00:01:27;;;;;;;14.45;9.649999;;;;;;;6.18;90.9541;95122.13;;;;
2020/10/13 00:02:30;;;;;;;14.45;9.649999;;;;;;;6.18;90.9541;95122.13;;;;
2020/10/13 00:03:30;;;;;;;14.45;9.649999;;;;;;;6.18;90.9541;95122.13;;;;
2020/10/13 00:04:31;;;;;;;14.45;9.649999;;;;;;;6.18;90.9541;95122.13;;;;
2020/10/13 00:05:31;;;;;;;14.45;9.649999;;;;;;;6.18;90.9541;95122.13;;;;
2020/10/13 00:06:32;;;;;;;14.45;9.649999;;;;;;;6.18;90.9541;95122.13;;;;
2020/10/13 00:07:32;;;;;;;14.2;9.249999;;;;;;;6.14;91.06055;95112.02;;;;
2020/10/13 00:08:33;;;;;;;14.2;9.249999;;;;;;;6.14;91.06055;95112.02;;;;
2020/10/13 00:09:34;;;;;;;14.2;9.249999;;;;;;;6.14;91.06055;95112.02;;;;
2020/10/13 00:10:34;;;;;;;14.2;9.249999;;;;;;;6.14;91.06055;95112.02;;;;
2020/10/13 00:11:35;;;;;;;14.2;9.249999;;;;;;;6.14;91.06055;95112.02;;;;
2020/10/13 00:12:35;;;;;;;14.2;9.249999;;;;;;;6.14;91.06055;95112.02;;;;
2020/10/13 00:13:36;;;;;;;14.2;9.249999;;;;;;;6.14;91.06055;95112.02;;;;
2020/10/13 00:14:37;;;;;;;14.2;9.249999;;;;;;;6.14;91.06055;95112.02;;;;
2020/10/13 00:15:38;;;;;;;14.2;9.249999;;;;;;;6.14;91.06055;95112.02;;;;
2020/10/13 00:16:38;;;;;;;14.2;9.249999;;;;;;;6.14;91.06055;95112.02;;;;
2020/10/13 00:17:40;;;;;;;14.2;9.249999;;;;;;;6.14;91.06055;95112.02;;;;
2020/10/13 00:18:40;;;;;;;16.7;10.3;;;;;;;6.08;91.28027;95100.71;;;;
2020/10/13 00:19:41;;;;;;;16.7;10.3;;;;;;;6.08;91.28027;95100.71;;;;
2020/10/13 00:20:42;;;;;;;16.7;10.3;;;;;;;6.08;91.28027;95100.71;;;;
2020/10/13 00:21:42;;;;;;;16.7;10.3;;;;;;;6.08;91.28027;95100.71;;;;
2020/10/13 00:22:43;;;;;;;16.7;10.3;;;;;;;6.08;91.28027;95100.71;;;;
2020/10/13 00:23:43;;;;;;;16.7;10.3;;;;;;;6.08;91.28027;95100.71;;;;
2020/10/13 00:24:44;;;;;;;16.7;10.3;;;;;;;6.08;91.28027;95100.71;;;;
2020/10/13 00:25:45;;;;;;;16.7;10.3;;;;;;;6.08;91.28027;95100.71;;;;
2020/10/13 00:26:45;;;;;;;16.7;10.3;;;;;;;6.08;91.28027;95100.71;;;;
2020/10/13 00:27:46;;;;;;;16.7;10.3;;;;;;;6.08;91.28027;95100.71;;;;
2020/10/13 00:28:47;;;;;;;13.5;9.650002;;;;;;;5.91;91.42383;95097.39;;;;
2020/10/13 00:29:47;;;;;;;13.5;9.650002;;;;;;;5.91;91.42383;95097.39;;;;
2020/10/13 00:30:48;;;;;;;13.5;9.650002;;;;;;;5.91;91.42383;95097.39;;;;
2020/10/13 00:31:48;;;;;;;13.5;9.650002;;;;;;;5.91;91.42383;95097.39;;;;
2020/10/13 00:32:49;;;;;;;13.5;9.650002;;;;;;;5.91;91.42383;95097.39;;;;
2020/10/13 00:33:49;;;;;;;13.5;9.650002;;;;;;;5.91;91.42383;95097.39;;;;
2020/10/13 00:34:50;;;;;;;13.5;9.650002;;;;;;;5.91;91.42383;95097.39;;;;
2020/10/13 00:35:51;;;;;;;13.5;9.650002;;;;;;;5.91;91.42383;95097.39;;;;
2020/10/13 00:36:51;;;;;;;13.5;9.650002;;;;;;;5.91;91.42383;95097.39;;;;
2020/10/13 00:37:52;;;;;;;13.5;9.650002;;;;;;;5.91;91.42383;95097.39;;;;
2020/10/13 00:38:52;;;;;;;13.5;9.650002;;;;;;;5.91;91.42383;95097.39;;;;
2020/10/13 00:39:53;;;;;;;14.4;9.900002;;;;;;;5.87;91.78223;95083.18;;;;
2020/10/13 00:40:53;;;;;;;14.4;9.900002;;;;;;;5.87;91.78223;95083.18;;;;
2020/10/13 00:41:54;;;;;;;14.4;9.900002;;;;;;;5.87;91.78223;95083.18;;;;
2020/10/13 00:42:54;;;;;;;14.4;9.900002;;;;;;;5.87;91.78223;95083.18;;;;
2020/10/13 00:43:55;;;;;;;14.4;9.900002;;;;;;;5.87;91.78223;95083.18;;;;
2020/10/13 00:44:58;;;;;;;14.4;9.900002;;;;;;;5.87;91.78223;95083.18;;;;
2020/10/13 00:45:58;;;;;;;14.4;9.900002;;;;;;;5.87;91.78223;95083.18;;;;
2020/10/13 00:46:59;;;;;;;14.4;9.900002;;;;;;;5.87;91.78223;95083.18;;;;
2020/10/13 00:48:00;;;;;;;14.4;9.900002;;;;;;;5.87;91.78223;95083.18;;;;
2020/10/13 00:49:00;;;;;;;14.4;9.900002;;;;;;;5.87;91.78223;95083.18;;;;
2020/10/13 00:50:02;;;;;;;18.15;10.35;;;;;;;5.79;92.06055;95068.25;;;;
2020/10/13 00:51:03;;;;;;;18.15;10.35;;;;;;;5.79;92.06055;95068.25;;;;
2020/10/13 00:52:03;;;;;;;18.15;10.35;;;;;;;5.79;92.06055;95068.25;;;;
2020/10/13 00:53:04;;;;;;;18.15;10.35;;;;;;;5.79;92.06055;95068.25;;;;
2020/10/13 00:54:05;;;;;;;18.15;10.35;;;;;;;5.79;92.06055;95068.25;;;;
2020/10/13 00:55:06;;;;;;;18.15;10.35;;;;;;;5.79;92.06055;95068.25;;;;
2020/10/13 00:56:07;;;;;;;18.15;10.35;;;;;;;5.79;92.06055;95068.25;;;;
2020/10/13 00:57:07;;;;;;;18.15;10.35;;;;;;;5.79;92.06055;95068.25;;;;
2020/10/13 00:58:09;;;;;;;18.15;10.35;;;;;;;5.79;92.06055;95068.25;;;;
2020/10/13 00:59:15;;;;;;;18.15;10.35;;;;;;;5.79;92.06055;95068.25;;;;
2020/10/13 01:00:16;;;;;;;18.15;10.35;;;;;;;5.79;92.06055;95068.25;;;;
2020/10/13 01:01:17;;;;;;;16.5;10.6;;;;;;;5.8;92.30469;95071.12;;;;
2020/10/13 01:02:17;;;;;;;16.5;10.6;;;;;;;5.8;92.30469;95071.12;;;;
2020/10/13 01:03:19;;;;;;;16.5;10.6;;;;;;;5.8;92.30469;95071.12;;;;
2020/10/13 01:04:20;;;;;;;16.5;10.6;;;;;;;5.8;92.30469;95071.12;;;;
2020/10/13 01:05:21;;;;;;;16.5;10.6;;;;;;;5.8;92.30469;95071.12;;;;
2020/10/13 01:06:21;;;;;;;16.5;10.6;;;;;;;5.8;92.30469;95071.12;;;;
2020/10/13 01:07:22;;;;;;;16.5;10.6;;;;;;;5.8;92.30469;95071.12;;;;
2020/10/13 01:08:23;;;;;;;16.5;10.6;;;;;;;5.8;92.30469;95071.12;;;;
2020/10/13 01:09:23;;;;;;;16.5;10.6;;;;;;;5.8;92.30469;95071.12;;;;
2020/10/13 01:10:24;;;;;;;16.5;10.6;;;;;;;5.8;92.30469;95071.12;;;;
2020/10/13 01:11:24;;;;;;;17.25;10.65;;;;;;;5.78;92.33301;95053.09;;;;
2020/10/13 01:12:26;;;;;;;17.25;10.65;;;;;;;5.78;92.33301;95053.09;;;;
2020/10/13 01:13:26;;;;;;;17.25;10.65;;;;;;;5.78;92.33301;95053.09;;;;
2020/10/13 01:14:27;;;;;;;17.25;10.65;;;;;;;5.78;92.33301;95053.09;;;;
2020/10/13 01:15:27;;;;;;;17.25;10.65;;;;;;;5.78;92.33301;95053.09;;;;
2020/10/13 01:16:28;;;;;;;17.25;10.65;;;;;;;5.78;92.33301;95053.09;;;;
2020/10/13 01:17:28;;;;;;;17.25;10.65;;;;;;;5.78;92.33301;95053.09;;;;
2020/10/13 01:18:29;;;;;;;17.25;10.65;;;;;;;5.78;92.33301;95053.09;;;;
2020/10/13 01:19:31;;;;;;;17.25;10.65;;;;;;;5.78;92.33301;95053.09;;;;
2020/10/13 01:20:32;;;;;;;17.25;10.65;;;;;;;5.78;92.33301;95053.09;;;;
2020/10/13 01:21:32;;;;;;;17.25;10.65;;;;;;;5.78;92.33301;95053.09;;;;
2020/10/13 01:22:33;;;;;;;20.25;12.3;;;;;;;5.87;92.41406;95045.67;;;;
2020/10/13 01:23:34;;;;;;;20.25;12.3;;;;;;;5.87;92.41406;95045.67;;;;
2020/10/13 01:24:35;;;;;;;20.25;12.3;;;;;;;5.87;92.41406;95045.67;;;;
2020/10/13 01:25:35;;;;;;;20.25;12.3;;;;;;;5.87;92.41406;95045.67;;;;
2020/10/13 01:26:36;;;;;;;20.25;12.3;;;;;;;5.87;92.41406;95045.67;;;;
2020/10/13 01:27:37;;;;;;;20.25;12.3;;;;;;;5.87;92.41406;95045.67;;;;
2020/10/13 01:28:38;;;;;;;20.25;12.3;;;;;;;5.87;92.41406;95045.67;;;;
2020/10/13 01:29:38;;;;;;;20.25;12.3;;;;;;;5.87;92.41406;95045.67;;;;
2020/10/13 01:30:39;;;;;;;20.25;12.3;;;;;;;5.87;92.41406;95045.67;;;;
2020/10/13 01:31:39;;;;;;;20.25;12.3;;;;;;;5.87;92.41406;95045.67;;;;
2020/10/13 01:32:41;;;;;;;20;11.9;;;;;;;5.93;92.36523;95043.49;;;;
2020/10/13 01:33:41;;;;;;;20;11.9;;;;;;;5.93;92.36523;95043.49;;;;
2020/10/13 01:34:42;;;;;;;20;11.9;;;;;;;5.93;92.36523;95043.49;;;;
2020/10/13 01:35:42;;;;;;;20;11.9;;;;;;;5.93;92.36523;95043.49;;;;
2020/10/13 01:36:43;;;;;;;20;11.9;;;;;;;5.93;92.36523;95043.49;;;;
2020/10/13 01:37:55;;;;;;;20;11.9;;;;;;;5.93;92.36523;95043.49;;;;
2020/10/13 01:38:55;;;;;;;20;11.9;;;;;;;5.93;92.36523;95043.49;;;;
2020/10/13 01:39:56;;;;;;;20;11.9;;;;;;;5.93;92.36523;95043.49;;;;
2020/10/13 01:40:57;;;;;;;20;11.9;;;;;;;5.93;92.36523;95043.49;;;;
2020/10/13 01:41:57;;;;;;;20;11.9;;;;;;;5.93;92.36523;95043.49;;;;
2020/10/13 01:42:59;;;;;;;20;11.9;;;;;;;5.93;92.36523;95043.49;;;;
2020/10/13 01:44:00;;;;;;;18.1;11.75;;;;;;;6.1;92.50684;95041.94;;;;
2020/10/13 01:45:00;;;;;;;18.1;11.75;;;;;;;6.1;92.50684;95041.94;;;;
2020/10/13 01:46:01;;;;;;;18.1;11.75;;;;;;;6.1;92.50684;95041.94;;;;
2020/10/13 01:47:13;;;;;;;18.1;11.75;;;;;;;6.1;92.50684;95041.94;;;;
2020/10/13 01:48:13;;;;;;;18.1;11.75;;;;;;;6.1;92.50684;95041.94;;;;
2020/10/13 01:49:14;;;;;;;18.1;11.75;;;;;;;6.1;92.50684;95041.94;;;;
2020/10/13 01:50:14;;;;;;;18.1;11.75;;;;;;;6.1;92.50684;95041.94;;;;
2020/10/13 01:51:15;;;;;;;18.1;11.75;;;;;;;6.1;92.50684;95041.94;;;;
2020/10/13 01:52:15;;;;;;;18.1;11.75;;;;;;;6.1;92.50684;95041.94;;;;
2020/10/13 01:53:16;;;;;;;18.1;11.75;;;;;;;6.1;92.50684;95041.94;;;;
2020/10/13 01:54:16;;;;;;;19.9;11.55;;;;;;;6.18;92.40625;95022.11;;;;
2020/10/13 01:55:17;;;;;;;19.9;11.55;;;;;;;6.18;92.40625;95022.11;;;;
2020/10/13 01:56:18;;;;;;;19.9;11.55;;;;;;;6.18;92.40625;95022.11;;;;
2020/10/13 01:57:18;;;;;;;19.9;11.55;;;;;;;6.18;92.40625;95022.11;;;;
2020/10/13 01:58:19;;;;;;;19.9;11.55;;;;;;;6.18;92.40625;95022.11;;;;
2020/10/13 01:59:19;;;;;;;19.9;11.55;;;;;;;6.18;92.40625;95022.11;;;;
2020/10/13 02:00:20;;;;;;;19.9;11.55;;;;;;;6.18;92.40625;95022.11;;;;
2020/10/13 02:01:20;;;;;;;19.9;11.55;;;;;;;6.18;92.40625;95022.11;;;;
2020/10/13 02:02:21;;;;;;;19.9;11.55;;;;;;;6.18;92.40625;95022.11;;;;
2020/10/13 02:03:21;;;;;;;19.9;11.55;;;;;;;6.18;92.40625;95022.11;;;;
2020/10/13 02:04:26;;;;;;;19.9;11.55;;;;;;;6.18;92.40625;95022.11;;;;
2020/10/13 02:05:26;;;;;;;17.95;11.45;;;;;;;6.27;92.51074;95015.46;;;;
2020/10/13 02:06:27;;;;;;;17.95;11.45;;;;;;;6.27;92.51074;95015.46;;;;
2020/10/13 02:07:27;;;;;;;17.95;11.45;;;;;;;6.27;92.51074;95015.46;;;;
2020/10/13 02:08:28;;;;;;;17.95;11.45;;;;;;;6.27;92.51074;95015.46;;;;
2020/10/13 02:09:29;;;;;;;17.95;11.45;;;;;;;6.27;92.51074;95015.46;;;;
2020/10/13 02:10:30;;;;;;;17.95;11.45;;;;;;;6.27;92.51074;95015.46;;;;
2020/10/13 02:11:31;;;;;;;17.95;11.45;;;;;;;6.27;92.51074;95015.46;;;;
2020/10/13 02:12:31;;;;;;;17.95;11.45;;;;;;;6.27;92.51074;95015.46;;;;
2020/10/13 02:13:32;;;;;;;17.95;11.45;;;;;;;6.27;92.51074;95015.46;;;;
2020/10/13 02:14:32;;;;;;;17.95;11.45;;;;;;;6.27;92.51074;95015.46;;;;
2020/10/13 02:15:33;;;;;;;18.35;11.55;;;;;;;6.23;92.46094;95006.62;;;;
2020/10/13 02:16:34;;;;;;;18.35;11.55;;;;;;;6.23;92.46094;95006.62;;;;
2020/10/13 02:17:35;;;;;;;18.35;11.55;;;;;;;6.23;92.46094;95006.62;;;;
2020/10/13 02:18:35;;;;;;;18.35;11.55;;;;;;;6.23;92.46094;95006.62;;;;
2020/10/13 02:19:36;;;;;;;18.35;11.55;;;;;;;6.23;92.46094;95006.62;;;;
2020/10/13 02:20:36;;;;;;;18.35;11.55;;;;;;;6.23;92.46094;95006.62;;;;
2020/10/13 02:21:37;;;;;;;18.35;11.55;;;;;;;6.23;92.46094;95006.62;;;;
2020/10/13 02:22:37;;;;;;;18.35;11.55;;;;;;;6.23;92.46094;95006.62;;;;
2020/10/13 02:23:38;;;;;;;18.35;11.55;;;;;;;6.23;92.46094;95006.62;;;;
2020/10/13 02:24:38;;;;;;;18.35;11.55;;;;;;;6.23;92.46094;95006.62;;;;
2020/10/13 02:25:39;;;;;;;18.35;11.55;;;;;;;6.23;92.46094;95006.62;;;;
2020/10/13 02:26:39;;;;;;;18.95;12.25;;;;;;;6.25;92.73828;95001.45;;;;
2020/10/13 02:27:44;;;;;;;18.95;12.25;;;;;;;6.25;92.73828;95001.45;;;;
2020/10/13 02:28:44;;;;;;;18.95;12.25;;;;;;;6.25;92.73828;95001.45;;;;
2020/10/13 02:29:45;;;;;;;18.95;12.25;;;;;;;6.25;92.73828;95001.45;;;;
2020/10/13 02:30:46;;;;;;;18.95;12.25;;;;;;;6.25;92.73828;95001.45;;;;
2020/10/13 02:31:46;;;;;;;18.95;12.25;;;;;;;6.25;92.73828;95001.45;;;;
2020/10/13 02:32:47;;;;;;;18.95;12.25;;;;;;;6.25;92.73828;95001.45;;;;
2020/10/13 02:33:47;;;;;;;18.95;12.25;;;;;;;6.25;92.73828;95001.45;;;;
2020/10/13 02:34:48;;;;;;;18.95;12.25;;;;;;;6.25;92.73828;95001.45;;;;
2020/10/13 02:35:48;;;;;;;18.95;12.25;;;;;;;6.25;92.73828;95001.45;;;;
2020/10/13 02:36:49;;;;;;;19.5;12.45;;;;;;;6.25;92.8125;94989.39;;;;
2020/10/13 02:37:49;;;;;;;19.5;12.45;;;;;;;6.25;92.8125;94989.39;;;;
2020/10/13 02:38:50;;;;;;;19.5;12.45;;;;;;;6.25;92.8125;94989.39;;;;
2020/10/13 02:39:50;;;;;;;19.5;12.45;;;;;;;6.25;92.8125;94989.39;;;;
2020/10/13 02:40:51;;;;;;;19.5;12.45;;;;;;;6.25;92.8125;94989.39;;;;
2020/10/13 02:41:51;;;;;;;19.5;12.45;;;;;;;6.25;92.8125;94989.39;;;;
2020/10/13 02:42:52;;;;;;;19.5;12.45;;;;;;;6.25;92.8125;94989.39;;;;
2020/10/13 02:43:52;;;;;;;19.5;12.45;;;;;;;6.25;92.8125;94989.39;;;;
2020/10/13 02:44:53;;;;;;;19.5;12.45;;;;;;;6.25;92.8125;94989.39;;;;
2020/10/13 02:45:53;;;;;;;19.5;12.45;;;;;;;6.25;92.8125;94989.39;;;;
2020/10/13 02:46:54;;;;;;;19.5;12.45;;;;;;;6.25;92.8125;94989.39;;;;
2020/10/13 02:47:55;;;;;;;20.35;12.25;;;;;;;6.36;92.99316;94988.7;;;;
2020/10/13 02:48:55;;;;;;;20.35;12.25;;;;;;;6.36;92.99316;94988.7;;;;
2020/10/13 02:49:56;;;;;;;20.35;12.25;;;;;;;6.36;92.99316;94988.7;;;;
2020/10/13 02:50:56;;;;;;;20.35;12.25;;;;;;;6.36;92.99316;94988.7;;;;
2020/10/13 02:51:57;;;;;;;20.35;12.25;;;;;;;6.36;92.99316;94988.7;;;;
2020/10/13 02:52:57;;;;;;;20.35;12.25;;;;;;;6.36;92.99316;94988.7;;;;
2020/10/13 02:53:58;;;;;;;20.35;12.25;;;;;;;6.36;92.99316;94988.7;;;;
2020/10/13 02:54:59;;;;;;;20.35;12.25;;;;;;;6.36;92.99316;94988.7;;;;
2020/10/13 02:56:00;;;;;;;20.35;12.25;;;;;;;6.36;92.99316;94988.7;;;;
2020/10/13 02:57:00;;;;;;;20.35;12.25;;;;;;;6.36;92.99316;94988.7;;;;
2020/10/13 02:58:01;;;;;;;19.9;12.25;;;;;;;6.38;92.82813;94991.99;;;;
2020/10/13 02:59:01;;;;;;;19.9;12.25;;;;;;;6.38;92.82813;94991.99;;;;
2020/10/13 03:00:03;;;;;;;19.9;12.25;;;;;;;6.38;92.82813;94991.99;;;;
2020/10/13 03:01:19;;;;;;;19.9;12.25;;;;;;;6.38;92.82813;94991.99;;;;
2020/10/13 03:02:23;;;;;;;19.9;12.25;;;;;;;6.38;92.82813;94991.99;;;;
2020/10/13 03:03:23;;;;;;;19.9;12.25;;;;;;;6.38;92.82813;94991.99;;;;
2020/10/13 03:04:24;;;;;;;19.9;12.25;;;;;;;6.38;92.82813;94991.99;;;;
2020/10/13 03:05:24;;;;;;;19.9;12.25;;;;;;;6.38;92.82813;94991.99;;;;
2020/10/13 03:06:25;;;;;;;19.9;12.25;;;;;;;6.38;92.82813;94991.99;;;;
2020/10/13 03:07:25;;;;;;;19.9;12.25;;;;;;;6.38;92.82813;94991.99;;;;
2020/10/13 03:08:26;;;;;;;19.9;12.25;;;;;;;6.38;92.82813;94991.99;;;;
2020/10/13 03:09:26;;;;;;;19.05;11.7;;;;;;;6.44;93.09277;94995.15;;;;
2020/10/13 03:10:27;;;;;;;19.05;11.7;;;;;;;6.44;93.09277;94995.15;;;;
2020/10/13 03:11:27;;;;;;;19.05;11.7;;;;;;;6.44;93.09277;94995.15;;;;
2020/10/13 03:12:28;;;;;;;19.05;11.7;;;;;;;6.44;93.09277;94995.15;;;;
2020/10/13 03:13:28;;;;;;;19.05;11.7;;;;;;;6.44;93.09277;94995.15;;;;
2020/10/13 03:14:29;;;;;;;19.05;11.7;;;;;;;6.44;93.09277;94995.15;;;;
2020/10/13 03:15:31;;;;;;;19.05;11.7;;;;;;;6.44;93.09277;94995.15;;;;
2020/10/13 03:16:31;;;;;;;19.05;11.7;;;;;;;6.44;93.09277;94995.15;;;;
2020/10/13 03:17:33;;;;;;;19.05;11.7;;;;;;;6.44;93.09277;94995.15;;;;
2020/10/13 03:18:33;;;;;;;19.05;11.7;;;;;;;6.44;93.09277;94995.15;;;;
2020/10/13 03:19:34;;;;;;;16.5;10.65;;;;;;;6.37;93.03711;94980.43;;;;
2020/10/13 03:20:34;;;;;;;16.5;10.65;;;;;;;6.37;93.03711;94980.43;;;;
2020/10/13 03:21:35;;;;;;;16.5;10.65;;;;;;;6.37;93.03711;94980.43;;;;
2020/10/13 03:22:36;;;;;;;16.5;10.65;;;;;;;6.37;93.03711;94980.43;;;;
2020/10/13 03:23:36;;;;;;;16.5;10.65;;;;;;;6.37;93.03711;94980.43;;;;
2020/10/13 03:24:36;;;;;;;16.5;10.65;;;;;;;6.37;93.03711;94980.43;;;;
2020/10/13 03:25:37;;;;;;;16.5;10.65;;;;;;;6.37;93.03711;94980.43;;;;
2020/10/13 03:26:37;;;;;;;16.5;10.65;;;;;;;6.37;93.03711;94980.43;;;;
2020/10/13 03:27:38;;;;;;;16.5;10.65;;;;;;;6.37;93.03711;94980.43;;;;
2020/10/13 03:28:39;;;;;;;16.5;10.65;;;;;;;6.37;93.03711;94980.43;;;;
2020/10/13 03:29:40;;;;;;;16.5;10.65;;;;;;;6.37;93.03711;94980.43;;;;
2020/10/13 03:30:40;;;;;;;16.65;9.95;;;;;;;6.32;93.30078;94974.91;;;;
2020/10/13 03:31:41;;;;;;;16.65;9.95;;;;;;;6.32;93.30078;94974.91;;;;
2020/10/13 03:32:41;;;;;;;16.65;9.95;;;;;;;6.32;93.30078;94974.91;;;;
2020/10/13 03:33:43;;;;;;;16.65;9.95;;;;;;;6.32;93.30078;94974.91;;;;
2020/10/13 03:34:43;;;;;;;16.65;9.95;;;;;;;6.32;93.30078;94974.91;;;;
2020/10/13 03:35:44;;;;;;;16.65;9.95;;;;;;;6.32;93.30078;94974.91;;;;
2020/10/13 03:36:44;;;;;;;16.65;9.95;;;;;;;6.32;93.30078;94974.91;;;;
2020/10/13 03:37:45;;;;;;;16.65;9.95;;;;;;;6.32;93.30078;94974.91;;;;
2020/10/13 03:38:45;;;;;;;16.65;9.95;;;;;;;6.32;93.30078;94974.91;;;;
2020/10/13 03:39:47;;;;;;;16.65;9.95;;;;;;;6.32;93.30078;94974.91;;;;
2020/10/13 03:40:48;;;;;;;19.6;11.5;;;;;;;6.24;93.47168;94958.69;;;;
2020/10/13 03:41:48;;;;;;;19.6;11.5;;;;;;;6.24;93.47168;94958.69;;;;
2020/10/13 03:42:50;;;;;;;19.6;11.5;;;;;;;6.24;93.47168;94958.69;;;;
2020/10/13 03:43:50;;;;;;;19.6;11.5;;;;;;;6.24;93.47168;94958.69;;;;
2020/10/13 03:44:51;;;;;;;19.6;11.5;;;;;;;6.24;93.47168;94958.69;;;;
2020/10/13 03:45:52;;;;;;;19.6;11.5;;;;;;;6.24;93.47168;94958.69;;;;
2020/10/13 03:46:52;;;;;;;19.6;11.5;;;;;;;6.24;93.47168;94958.69;;;;
2020/10/13 03:47:53;;;;;;;19.6;11.5;;;;;;;6.24;93.47168;94958.69;;;;
2020/10/13 03:48:53;;;;;;;19.6;11.5;;;;;;;6.24;93.47168;94958.69;;;;
2020/10/13 03:49:58;;;;;;;19.6;11.5;;;;;;;6.24;93.47168;94958.69;;;;
2020/10/13 03:50:59;;;;;;;19.6;11.5;;;;;;;6.24;93.47168;94958.69;;;;
2020/10/13 03:51:59;;;;;;;21.05;12.6;;;;;;;6.3;93.74902;94952.01;;;;
2020/10/13 03:53:00;;;;;;;21.05;12.6;;;;;;;6.3;93.74902;94952.01;;;;
2020/10/13 03:54:01;;;;;;;21.05;12.6;;;;;;;6.3;93.74902;94952.01;;;;
2020/10/13 03:55:03;;;;;;;21.05;12.6;;;;;;;6.3;93.74902;94952.01;;;;
2020/10/13 03:56:04;;;;;;;21.05;12.6;;;;;;;6.3;93.74902;94952.01;;;;
2020/10/13 03:57:05;;;;;;;21.05;12.6;;;;;;;6.3;93.74902;94952.01;;;;
2020/10/13 03:58:06;;;;;;;21.05;12.6;;;;;;;6.3;93.74902;94952.01;;;;
2020/10/13 03:59:07;;;;;;;21.05;12.6;;;;;;;6.3;93.74902;94952.01;;;;
2020/10/13 04:00:07;;;;;;;21.05;12.6;;;;;;;6.3;93.74902;94952.01;;;;
2020/10/13 04:01:14;;;;;;;21.05;12.6;;;;;;;6.3;93.74902;94952.01;;;;
2020/10/13 04:02:14;;;;;;;16.65;10.5;;;;;;;6.29;93.7793;94952.56;;;;
2020/10/13 04:03:15;;;;;;;16.65;10.5;;;;;;;6.29;93.7793;94952.56;;;;
2020/10/13 04:04:15;;;;;;;16.65;10.5;;;;;;;6.29;93.7793;94952.56;;;;
2020/10/13 04:05:33;;;;;;;16.65;10.5;;;;;;;6.29;93.7793;94952.56;;;;
2020/10/13 04:06:35;;;;;;;16.65;10.5;;;;;;;6.29;93.7793;94952.56;;;;
2020/10/13 04:07:35;;;;;;;16.65;10.5;;;;;;;6.29;93.7793;94952.56;;;;
2020/10/13 04:08:36;;;;;;;16.65;10.5;;;;;;;6.29;93.7793;94952.56;;;;
2020/10/13 04:09:36;;;;;;;16.65;10.5;;;;;;;6.29;93.7793;94952.56;;;;
2020/10/13 04:10:54;;;;;;;16.65;10.5;;;;;;;6.29;93.7793;94952.56;;;;
2020/10/13 04:12:02;;;;;;;16.65;10.5;;;;;;;6.29;93.7793;94952.56;;;;
2020/10/13 04:13:06;;;;;;;16.15;10.45;;;;;;;6.34;94.05273;94945.61;;;;
2020/10/13 04:14:14;;;;;;;16.15;10.45;;;;;;;6.34;94.05273;94945.61;;;;
2020/10/13 04:15:15;;;;;;;16.15;10.45;;;;;;;6.34;94.05273;94945.61;;;;
2020/10/13 04:16:48;;;;;;;16.15;10.45;;;;;;;6.34;94.05273;94945.61;;;;
2020/10/13 04:18:33;;;;;;;16.15;10.45;;;;;;;6.34;94.05273;94945.61;;;;
2020/10/13 04:19:34;;;;;;;16.15;10.45;;;;;;;6.34;94.05273;94945.61;;;;
2020/10/13 04:20:35;;;;;;;16.15;10.45;;;;;;;6.34;94.05273;94945.61;;;;
2020/10/13 04:21:37;;;;;;;16.15;10.45;;;;;;;6.34;94.05273;94945.61;;;;
2020/10/13 04:22:37;;;;;;;16.15;10.45;;;;;;;6.34;94.05273;94945.61;;;;
2020/10/13 04:23:38;;;;;;;19.5;12.4;;;;;;;6.32;94.11133;94938.71;;;;
2020/10/13 04:24:38;;;;;;;19.5;12.4;;;;;;;6.32;94.11133;94938.71;;;;
2020/10/13 04:25:39;;;;;;;19.5;12.4;;;;;;;6.32;94.11133;94938.71;;;;
2020/10/13 04:26:45;;;;;;;19.5;12.4;;;;;;;6.32;94.11133;94938.71;;;;
2020/10/13 04:27:48;;;;;;;19.5;12.4;;;;;;;6.32;94.11133;94938.71;;;;
2020/10/13 04:28:51;;;;;;;19.5;12.4;;;;;;;6.32;94.11133;94938.71;;;;
2020/10/13 04:29:51;;;;;;;19.5;12.4;;;;;;;6.32;94.11133;94938.71;;;;
2020/10/13 04:31:43;;;;;;;19.5;12.4;;;;;;;6.32;94.11133;94938.71;;;;
2020/10/13 04:32:52;;;;;;;19.5;12.4;;;;;;;6.32;94.11133;94938.71;;;;
2020/10/13 04:33:53;;;;;;;21.25;12.25;;;;;;;6.31;94.30957;94928.21;;;;
2020/10/13 04:35:00;;;;;;;21.25;12.25;;;;;;;6.31;94.30957;94928.21;;;;
2020/10/13 04:36:00;;;;;;;21.25;12.25;;;;;;;6.31;94.30957;94928.21;;;;
2020/10/13 04:37:03;;;;;;;21.25;12.25;;;;;;;6.31;94.30957;94928.21;;;;
2020/10/13 04:38:10;;;;;;;21.25;12.25;;;;;;;6.31;94.30957;94928.21;;;;
2020/10/13 04:39:14;;;;;;;21.25;12.25;;;;;;;6.31;94.30957;94928.21;;;;
2020/10/13 04:40:30;;;;;;;21.25;12.25;;;;;;;6.31;94.30957;94928.21;;;;
2020/10/13 04:41:31;;;;;;;21.25;12.25;;;;;;;6.31;94.30957;94928.21;;;;
2020/10/13 04:42:31;;;;;;;21.25;12.25;;;;;;;6.31;94.30957;94928.21;;;;
2020/10/13 04:43:32;;;;;;;21.25;12.25;;;;;;;6.31;94.30957;94928.21;;;;
2020/10/13 04:44:37;;;;;;;26.1;14.5;;;;;;;6.26;94.50781;94931.11;;;;
2020/10/13 04:45:38;;;;;;;26.1;14.5;;;;;;;6.26;94.50781;94931.11;;;;
2020/10/13 04:46:40;;;;;;;26.1;14.5;;;;;;;6.26;94.50781;94931.11;;;;
2020/10/13 04:47:41;;;;;;;26.1;14.5;;;;;;;6.26;94.50781;94931.11;;;;
2020/10/13 04:48:41;;;;;;;26.1;14.5;;;;;;;6.26;94.50781;94931.11;;;;
2020/10/13 04:49:43;;;;;;;26.1;14.5;;;;;;;6.26;94.50781;94931.11;;;;
2020/10/13 04:50:44;;;;;;;26.1;14.5;;;;;;;6.26;94.50781;94931.11;;;;
2020/10/13 04:51:46;;;;;;;26.1;14.5;;;;;;;6.26;94.50781;94931.11;;;;
2020/10/13 04:52:46;;;;;;;26.1;14.5;;;;;;;6.26;94.50781;94931.11;;;;
2020/10/13 04:53:47;;;;;;;26.1;14.5;;;;;;;6.26;94.50781;94931.11;;;;
2020/10/13 04:54:47;;;;;;;26.1;14.5;;;;;;;6.26;94.50781;94931.11;;;;
2020/10/13 04:56:03;;;;;;;25.6;15.15;;;;;;;6.35;94.77246;94927.95;;;;
2020/10/13 04:57:07;;;;;;;25.6;15.15;;;;;;;6.35;94.77246;94927.95;;;;
2020/10/13 04:58:08;;;;;;;25.6;15.15;;;;;;;6.35;94.77246;94927.95;;;;
2020/10/13 04:59:09;;;;;;;25.6;15.15;;;;;;;6.35;94.77246;94927.95;;;;
2020/10/13 05:00:18;;;;;;;25.6;15.15;;;;;;;6.35;94.77246;94927.95;;;;
2020/10/13 05:01:19;;;;;;;25.6;15.15;;;;;;;6.35;94.77246;94927.95;;;;
2020/10/13 05:02:24;;;;;;;25.6;15.15;;;;;;;6.35;94.77246;94927.95;;;;
2020/10/13 05:03:25;;;;;;;25.6;15.15;;;;;;;6.35;94.77246;94927.95;;;;
2020/10/13 05:04:25;;;;;;;25.6;15.15;;;;;;;6.35;94.77246;94927.95;;;;
2020/10/13 05:05:32;;;;;;;25.6;15.15;;;;;;;6.35;94.77246;94927.95;;;;
2020/10/13 05:06:34;;;;;;;29.85;17.25;;;;;;;6.37;94.82715;94925.47;;;;
2020/10/13 05:07:38;;;;;;;29.85;17.25;;;;;;;6.37;94.82715;94925.47;;;;
2020/10/13 05:08:39;;;;;;;29.85;17.25;;;;;;;6.37;94.82715;94925.47;;;;
2020/10/13 05:09:41;;;;;;;29.85;17.25;;;;;;;6.37;94.82715;94925.47;;;;
2020/10/13 05:10:41;;;;;;;29.85;17.25;;;;;;;6.37;94.82715;94925.47;;;;
2020/10/13 05:11:42;;;;;;;29.85;17.25;;;;;;;6.37;94.82715;94925.47;;;;
2020/10/13 05:12:43;;;;;;;29.85;17.25;;;;;;;6.37;94.82715;94925.47;;;;
2020/10/13 05:13:46;;;;;;;29.85;17.25;;;;;;;6.37;94.82715;94925.47;;;;
2020/10/13 05:14:46;;;;;;;29.85;17.25;;;;;;;6.37;94.82715;94925.47;;;;
2020/10/13 05:15:48;;;;;;;29.85;17.25;;;;;;;6.37;94.82715;94925.47;;;;
2020/10/13 05:16:57;;;;;;;27.05;16.15;;;;;;;6.48;95.16797;94922.08;;;;
2020/10/13 05:18:14;;;;;;;27.05;16.15;;;;;;;6.48;95.16797;94922.08;;;;
2020/10/13 05:19:15;;;;;;;27.05;16.15;;;;;;;6.48;95.16797;94922.08;;;;
2020/10/13 05:20:17;;;;;;;27.05;16.15;;;;;;;6.48;95.16797;94922.08;;;;
2020/10/13 05:21:26;;;;;;;27.05;16.15;;;;;;;6.48;95.16797;94922.08;;;;
2020/10/13 05:22:27;;;;;;;27.05;16.15;;;;;;;6.48;95.16797;94922.08;;;;
2020/10/13 05:23:27;;;;;;;27.05;16.15;;;;;;;6.48;95.16797;94922.08;;;;
2020/10/13 05:24:29;;;;;;;27.05;16.15;;;;;;;6.48;95.16797;94922.08;;;;
2020/10/13 05:25:30;;;;;;;27.05;16.15;;;;;;;6.48;95.16797;94922.08;;;;
2020/10/13 05:26:31;;;;;;;27.05;16.15;;;;;;;6.48;95.16797;94922.08;;;;
2020/10/13 05:27:31;;;;;;;28.35;16.25;;;;;;;6.49;94.96973;94921.04;;;;
2020/10/13 05:28:32;;;;;;;28.35;16.25;;;;;;;6.49;94.96973;94921.04;;;;
2020/10/13 05:29:36;;;;;;;28.35;16.25;;;;;;;6.49;94.96973;94921.04;;;;
2020/10/13 05:30:36;;;;;;;28.35;16.25;;;;;;;6.49;94.96973;94921.04;;;;
2020/10/13 05:31:43;;;;;;;28.35;16.25;;;;;;;6.49;94.96973;94921.04;;;;
2020/10/13 05:32:45;;;;;;;28.35;16.25;;;;;;;6.49;94.96973;94921.04;;;;
2020/10/13 05:33:45;;;;;;;28.35;16.25;;;;;;;6.49;94.96973;94921.04;;;;
2020/10/13 05:34:46;;;;;;;28.35;16.25;;;;;;;6.49;94.96973;94921.04;;;;
2020/10/13 05:35:47;;;;;;;28.35;16.25;;;;;;;6.49;94.96973;94921.04;;;;
2020/10/13 05:36:47;;;;;;;28.35;16.25;;;;;;;6.49;94.96973;94921.04;;;;
2020/10/13 05:37:48;;;;;;;28.35;16.25;;;;;;;6.49;94.96973;94921.04;;;;
2020/10/13 05:38:48;;;;;;;33.6;18.3;;;;;;;6.55;95.18262;94914.79;;;;
2020/10/13 05:39:49;;;;;;;33.6;18.3;;;;;;;6.55;95.18262;94914.79;;;;
2020/10/13 05:40:52;;;;;;;33.6;18.3;;;;;;;6.55;95.18262;94914.79;;;;
2020/10/13 05:41:53;;;;;;;33.6;18.3;;;;;;;6.55;95.18262;94914.79;;;;
2020/10/13 05:42:55;;;;;;;33.6;18.3;;;;;;;6.55;95.18262;94914.79;;;;
2020/10/13 05:43:56;;;;;;;33.6;18.3;;;;;;;6.55;95.18262;94914.79;;;;
2020/10/13 05:44:57;;;;;;;33.6;18.3;;;;;;;6.55;95.18262;94914.79;;;;
2020/10/13 05:45:57;;;;;;;33.6;18.3;;;;;;;6.55;95.18262;94914.79;;;;
2020/10/13 05:46:59;;;;;;;33.6;18.3;;;;;;;6.55;95.18262;94914.79;;;;
2020/10/13 05:48:04;;;;;;;33.6;18.3;;;;;;;6.55;95.18262;94914.79;;;;